Time;durP1;ratioP1;P1;durP2;ratioP2;P2;SDS_P1;SDS_P2;PMS_P1;PMS_P2;Temp;Humidity;BMP_temperature;BMP_pressure;BME280_temperature;BME280_humidity;BME280_pressure;Samples;Min_cycle;Max_cycle;Signal;HPM_P1;HPM_P2
2022/01/18 00:00:56;;;;;;;75.22;8.40;;;;;;;;;;4986491;28;20037;-85
2022/01/18 00:03:23;;;;;;;52.10;7.78;;;;;;;;;;4995926;28;20038;-85
2022/01/18 00:05:50;;;;;;;41.00;5.57;;;;;;;;;;4989879;28;20562;-86
2022/01/18 00:08:17;;;;;;;60.50;8.23;;;;;;;;;;4983713;28;20587;-86
2022/01/18 00:10:44;;;;;;;39.95;5.47;;;;;;;;;;4998825;28;20022;-86
2022/01/18 00:13:25;;;;;;;60.53;6.80;;;;;;;;;;5001291;28;20102;-86
2022/01/18 00:18:23;;;;;;;52.28;6.57;;;;;;;;;;5004464;28;20046;-86
2022/01/18 00:21:17;;;;;;;50.55;6.45;;;;;;;;;;4989405;28;20027;-85
2022/01/18 00:23:43;;;;;;;60.75;7.57;;;;;;;;;;5000844;28;20045;-86
2022/01/18 00:26:10;;;;;;;60.08;6.13;;;;;;;;;;4998803;28;20030;-86
2022/01/18 00:28:37;;;;;;;63.35;6.63;;;;;;;;;;5002097;28;20108;-85
2022/01/18 00:36:20;;;;;;;50.67;6.57;;;;;;;;;;5023333;28;20544;-85
2022/01/18 00:38:48;;;;;;;49.83;6.18;;;;;;;;;;5014320;28;20033;-86
2022/01/18 00:41:15;;;;;;;51.55;8.32;;;;;;;;;;5014384;28;20032;-86
2022/01/18 00:43:41;;;;;;;52.75;5.18;;;;;;;;;;5002001;28;20112;-85
2022/01/18 00:46:07;;;;;;;76.97;8.07;;;;;;;;;;5006432;28;20043;-86
2022/01/18 00:48:35;;;;;;;56.95;7.22;;;;;;;;;;5023993;28;20654;-86
2022/01/18 00:51:06;;;;;;;49.08;6.05;;;;;;;;;;5001165;28;20084;-85
2022/01/18 00:53:34;;;;;;;37.13;6.03;;;;;;;;;;5006299;28;20038;-85
2022/01/18 00:56:47;;;;;;;44.67;5.32;;;;;;;;;;5003261;28;20119;-86
2022/01/18 00:58:47;;;;;;;18.35;1.98;;;;;;;;;;5013170;28;20041;-85
2022/01/18 01:01:14;;;;;;;46.35;7.15;;;;;;;;;;5011714;28;20080;-86
2022/01/18 01:03:41;;;;;;;45.00;5.50;;;;;;;;;;5002175;28;20105;-86
2022/01/18 01:06:07;;;;;;;53.92;6.85;;;;;;;;;;5006014;28;20030;-86
2022/01/18 01:08:34;;;;;;;41.67;5.85;;;;;;;;;;5004144;28;20029;-86
2022/01/18 01:11:02;;;;;;;55.58;5.53;;;;;;;;;;5008086;28;20032;-86
2022/01/18 01:13:30;;;;;;;61.90;7.97;;;;;;;;;;5012624;28;20108;-86
2022/01/18 01:43:18;;;;;;;39.25;4.53;;;;;;;;;;5016480;28;20041;-86
2022/01/18 01:45:44;;;;;;;62.17;7.25;;;;;;;;;;5009177;28;20076;-86
2022/01/18 01:48:10;;;;;;;53.05;6.70;;;;;;;;;;4989876;28;20144;-86
2022/01/18 01:50:47;;;;;;;57.28;6.13;;;;;;;;;;5017725;28;20100;-85
2022/01/18 01:53:15;;;;;;;57.50;6.50;;;;;;;;;;5016201;28;20060;-86
2022/01/18 01:55:41;;;;;;;79.78;6.22;;;;;;;;;;5014822;28;20465;-86
2022/01/18 01:58:07;;;;;;;54.10;5.25;;;;;;;;;;4997111;28;20129;-85
2022/01/18 02:00:34;;;;;;;50.00;6.47;;;;;;;;;;4997985;28;20735;-84
2022/01/18 02:03:00;;;;;;;46.03;6.47;;;;;;;;;;4998511;28;20509;-86
2022/01/18 02:05:26;;;;;;;44.72;6.18;;;;;;;;;;5025387;28;20025;-86
2022/01/18 02:07:59;;;;;;;54.35;6.13;;;;;;;;;;4998353;28;20021;-85
2022/01/18 02:10:25;;;;;;;50.88;5.50;;;;;;;;;;5019142;28;20563;-85
2022/01/18 02:12:51;;;;;;;40.22;5.28;;;;;;;;;;5006884;28;20065;-86
2022/01/18 02:15:19;;;;;;;47.80;5.45;;;;;;;;;;5015334;28;20524;-85
2022/01/18 02:23:22;;;;;;;38.23;5.47;;;;;;;;;;5017086;28;20041;-86
2022/01/18 02:25:55;;;;;;;42.72;6.45;;;;;;;;;;5020690;28;20421;-85
2022/01/18 02:28:22;;;;;;;50.15;5.60;;;;;;;;;;5017524;28;20447;-85
2022/01/18 02:30:48;;;;;;;56.15;5.57;;;;;;;;;;4999616;28;20463;-86
2022/01/18 02:33:15;;;;;;;38.38;5.68;;;;;;;;;;5021231;28;20029;-85
2022/01/18 02:35:41;;;;;;;39.63;4.97;;;;;;;;;;5005145;28;20040;-85
2022/01/18 02:38:07;;;;;;;55.72;6.78;;;;;;;;;;4997805;28;20567;-85
2022/01/18 02:40:34;;;;;;;33.90;4.95;;;;;;;;;;5005559;28;20042;-85
2022/01/18 02:43:46;;;;;;;54.95;5.40;;;;;;;;;;4998776;28;20037;-85
2022/01/18 02:45:47;;;;;;;46.42;4.72;;;;;;;;;;5016982;28;20040;-85
2022/01/18 02:48:13;;;;;;;44.30;5.45;;;;;;;;;;5001856;28;20673;-85
2022/01/18 02:50:39;;;;;;;41.00;4.88;;;;;;;;;;4994641;28;20021;-85
2022/01/18 02:53:05;;;;;;;35.35;4.07;;;;;;;;;;5002196;28;20095;-85
2022/01/18 02:55:31;;;;;;;39.75;5.43;;;;;;;;;;4995607;28;20033;-86
2022/01/18 02:58:04;;;;;;;42.00;5.35;;;;;;;;;;5018037;28;20168;-85
2022/01/18 03:00:42;;;;;;;33.45;4.28;;;;;;;;;;4993491;28;20133;-86
2022/01/18 03:03:13;;;;;;;37.50;4.70;;;;;;;;;;5005712;28;20029;-85
2022/01/18 03:05:43;;;;;;;35.88;5.05;;;;;;;;;;5005055;28;20029;-86
2022/01/18 03:08:10;;;;;;;40.47;5.35;;;;;;;;;;5015299;28;20028;-85
2022/01/18 03:10:37;;;;;;;34.40;5.93;;;;;;;;;;5003125;28;20086;-85
2022/01/18 03:13:03;;;;;;;40.25;4.35;;;;;;;;;;5003396;28;20087;-85
2022/01/18 03:15:29;;;;;;;44.08;4.57;;;;;;;;;;5003029;28;20045;-85
2022/01/18 03:17:55;;;;;;;43.47;4.82;;;;;;;;;;4997405;28;20034;-85
2022/01/18 03:20:23;;;;;;;39.83;5.35;;;;;;;;;;5000246;28;20041;-86
2022/01/18 03:22:50;;;;;;;35.65;7.03;;;;;;;;;;4998005;28;20544;-85
2022/01/18 03:25:39;;;;;;;46.35;5.93;;;;;;;;;;4995043;28;20052;-85
2022/01/18 03:28:06;;;;;;;36.20;4.32;;;;;;;;;;5003141;28;20025;-85
2022/01/18 03:30:36;;;;;;;44.53;5.13;;;;;;;;;;5013429;28;20271;-85
2022/01/18 03:33:04;;;;;;;46.03;4.57;;;;;;;;;;5000460;28;20481;-86
2022/01/18 03:35:30;;;;;;;39.72;5.38;;;;;;;;;;4999405;28;20050;-86
2022/01/18 03:37:56;;;;;;;33.25;4.95;;;;;;;;;;5001676;28;20489;-85
2022/01/18 03:40:22;;;;;;;35.03;4.30;;;;;;;;;;5001264;28;20045;-86
2022/01/18 03:42:49;;;;;;;39.50;3.75;;;;;;;;;;5002111;28;20600;-85
2022/01/18 03:45:19;;;;;;;38.65;4.05;;;;;;;;;;4995298;28;20438;-86
2022/01/18 03:47:45;;;;;;;40.90;5.90;;;;;;;;;;5001806;28;20029;-85
2022/01/18 03:50:13;;;;;;;31.40;3.50;;;;;;;;;;4999934;28;20504;-86
2022/01/18 03:52:39;;;;;;;23.95;3.67;;;;;;;;;;5011698;28;20022;-86
2022/01/18 03:55:06;;;;;;;26.65;4.20;;;;;;;;;;5015415;28;20494;-85
2022/01/18 03:57:32;;;;;;;38.10;5.78;;;;;;;;;;4999873;28;20560;-85
2022/01/18 03:59:58;;;;;;;41.42;5.10;;;;;;;;;;5003499;28;20059;-85
2022/01/18 04:02:24;;;;;;;33.83;4.45;;;;;;;;;;5000169;28;20559;-86
2022/01/18 04:04:50;;;;;;;30.52;4.07;;;;;;;;;;4995890;28;20327;-85
2022/01/18 04:07:16;;;;;;;33.50;5.07;;;;;;;;;;4992507;28;20057;-85
2022/01/18 04:09:42;;;;;;;22.08;3.58;;;;;;;;;;5018388;28;20026;-85
2022/01/18 04:12:09;;;;;;;20.90;3.72;;;;;;;;;;5002366;28;20033;-85
2022/01/18 04:14:35;;;;;;;24.45;3.90;;;;;;;;;;4992967;28;20044;-85
2022/01/18 04:27:33;;;;;;;25.65;3.25;;;;;;;;;;4997012;28;20044;-86
2022/01/18 04:29:59;;;;;;;34.63;4.07;;;;;;;;;;5004426;28;20108;-86
2022/01/18 04:32:25;;;;;;;24.20;3.03;;;;;;;;;;4984076;28;20566;-86
2022/01/18 04:34:51;;;;;;;28.02;3.22;;;;;;;;;;4984116;28;20037;-86
2022/01/18 04:37:17;;;;;;;20.98;2.35;;;;;;;;;;5004010;28;20486;-86
2022/01/18 04:39:45;;;;;;;21.00;2.90;;;;;;;;;;4989553;28;20398;-85
2022/01/18 04:42:18;;;;;;;25.65;3.72;;;;;;;;;;4998407;28;20026;-85
2022/01/18 04:50:14;;;;;;;17.33;2.58;;;;;;;;;;4998103;28;20057;-85
2022/01/18 04:52:40;;;;;;;23.73;2.67;;;;;;;;;;4990687;28;20034;-86
2022/01/18 04:55:06;;;;;;;16.55;2.58;;;;;;;;;;4979552;28;20026;-85
2022/01/18 05:00:17;;;;;;;24.55;2.53;;;;;;;;;;5000334;28;20107;-86
2022/01/18 05:02:43;;;;;;;25.58;2.88;;;;;;;;;;4999672;28;20046;-86
2022/01/18 05:05:11;;;;;;;16.75;2.53;;;;;;;;;;5002100;28;20081;-86
2022/01/18 05:07:38;;;;;;;15.73;2.35;;;;;;;;;;4983267;28;20660;-86
2022/01/18 05:10:04;;;;;;;16.58;2.15;;;;;;;;;;4998843;28;20110;-86
2022/01/18 05:12:44;;;;;;;20.27;2.75;;;;;;;;;;5010077;28;20386;-85
2022/01/18 05:15:35;;;;;;;34.20;7.65;;;;;;;;;;4990320;28;20030;-86
2022/01/18 05:23:08;;;;;;;18.95;3.50;;;;;;;;;;5002329;28;20086;-84
2022/01/18 05:25:35;;;;;;;15.70;2.80;;;;;;;;;;4988709;28;20509;-86
2022/01/18 05:28:02;;;;;;;17.38;4.07;;;;;;;;;;5020271;28;20394;-85
2022/01/18 05:30:28;;;;;;;9.70;3.10;;;;;;;;;;5001685;28;20029;-86
2022/01/18 05:32:55;;;;;;;13.18;4.78;;;;;;;;;;5003414;28;20042;-85
2022/01/18 05:35:21;;;;;;;13.35;2.95;;;;;;;;;;5020569;28;20504;-86
2022/01/18 05:37:48;;;;;;;20.05;2.53;;;;;;;;;;5005798;28;20473;-85
2022/01/18 05:40:15;;;;;;;20.05;3.17;;;;;;;;;;5016786;28;20037;-86
2022/01/18 05:42:41;;;;;;;12.23;2.58;;;;;;;;;;5004210;28;20507;-85
2022/01/18 05:45:08;;;;;;;10.82;2.22;;;;;;;;;;5004052;28;20026;-85
2022/01/18 05:47:34;;;;;;;17.27;2.80;;;;;;;;;;5000714;28;20026;-86
2022/01/18 05:50:01;;;;;;;13.30;2.00;;;;;;;;;;5006290;28;20028;-85
2022/01/18 05:52:27;;;;;;;11.50;2.78;;;;;;;;;;5012985;28;20025;-86
2022/01/18 05:54:53;;;;;;;10.55;2.13;;;;;;;;;;5003505;28;20524;-86
2022/01/18 05:57:19;;;;;;;16.90;2.38;;;;;;;;;;4997332;28;20485;-86
2022/01/18 05:59:47;;;;;;;8.07;1.70;;;;;;;;;;5005108;28;20079;-86
2022/01/18 06:02:34;;;;;;;15.88;3.25;;;;;;;;;;5001450;28;20505;-86
2022/01/18 06:07:44;;;;;;;18.40;2.30;;;;;;;;;;5019213;28;20394;-86
2022/01/18 06:10:10;;;;;;;12.55;2.17;;;;;;;;;;5003548;28;20029;-85
2022/01/18 06:12:36;;;;;;;15.25;2.60;;;;;;;;;;4999939;28;20037;-86
2022/01/18 06:15:03;;;;;;;17.00;2.90;;;;;;;;;;5001203;28;20029;-86
2022/01/18 06:17:29;;;;;;;9.40;2.28;;;;;;;;;;5016716;28;20062;-85
2022/01/18 06:19:55;;;;;;;11.68;2.30;;;;;;;;;;5016999;28;20528;-85
2022/01/18 06:22:21;;;;;;;14.20;2.00;;;;;;;;;;5003416;28;20026;-85
2022/01/18 06:24:47;;;;;;;16.02;2.47;;;;;;;;;;4999190;28;20861;-85
2022/01/18 06:27:13;;;;;;;12.15;2.40;;;;;;;;;;5018784;28;20105;-86
2022/01/18 06:29:39;;;;;;;15.45;2.55;;;;;;;;;;5009241;28;20033;-86
2022/01/18 06:32:06;;;;;;;13.63;1.98;;;;;;;;;;5002475;28;20482;-85
2022/01/18 06:34:32;;;;;;;13.23;3.03;;;;;;;;;;5014639;28;20284;-86
2022/01/18 06:36:58;;;;;;;19.50;2.72;;;;;;;;;;5001963;28;20482;-86
2022/01/18 06:39:24;;;;;;;11.27;2.38;;;;;;;;;;5008341;28;20100;-86
2022/01/18 06:41:51;;;;;;;12.48;1.85;;;;;;;;;;5014595;28;20041;-85
2022/01/18 06:44:17;;;;;;;12.00;1.92;;;;;;;;;;5000402;28;20068;-86
2022/01/18 06:46:43;;;;;;;21.10;2.30;;;;;;;;;;5013603;28;20477;-85
2022/01/18 06:49:09;;;;;;;13.18;2.00;;;;;;;;;;4998589;28;20502;-86
2022/01/18 06:51:36;;;;;;;19.33;2.38;;;;;;;;;;5004313;28;20535;-86
2022/01/18 06:54:02;;;;;;;15.10;2.20;;;;;;;;;;5003885;28;20025;-86
2022/01/18 06:56:28;;;;;;;10.93;1.92;;;;;;;;;;5006924;28;20039;-86
2022/01/18 06:58:54;;;;;;;18.02;2.60;;;;;;;;;;4998873;28;20620;-86
2022/01/18 07:01:21;;;;;;;23.45;2.80;;;;;;;;;;5001089;28;20667;-86
2022/01/18 07:03:48;;;;;;;18.33;2.55;;;;;;;;;;5003802;28;20171;-85
2022/01/18 07:06:15;;;;;;;17.42;3.38;;;;;;;;;;5017994;28;20030;-85
2022/01/18 07:08:41;;;;;;;16.77;3.05;;;;;;;;;;4999764;28;20366;-85
2022/01/18 07:11:08;;;;;;;13.73;2.50;;;;;;;;;;5004949;28;20029;-86
2022/01/18 07:13:34;;;;;;;17.02;2.97;;;;;;;;;;4997550;28;20452;-85
2022/01/18 07:16:00;;;;;;;9.38;2.65;;;;;;;;;;5016213;28;20029;-86
2022/01/18 07:18:27;;;;;;;21.40;3.33;;;;;;;;;;5002225;28;20075;-86
2022/01/18 07:20:53;;;;;;;19.23;3.10;;;;;;;;;;4996920;28;20120;-86
2022/01/18 07:23:19;;;;;;;27.05;4.30;;;;;;;;;;4999658;28;20398;-85
2022/01/18 07:25:46;;;;;;;18.77;3.47;;;;;;;;;;4996797;28;20088;-86
2022/01/18 07:28:13;;;;;;;27.42;3.45;;;;;;;;;;5023375;28;20034;-86
2022/01/18 07:30:39;;;;;;;19.88;3.35;;;;;;;;;;5013226;28;20037;-86
2022/01/18 07:33:12;;;;;;;22.02;2.75;;;;;;;;;;5019909;28;20038;-86
2022/01/18 07:35:38;;;;;;;17.58;3.80;;;;;;;;;;5012367;28;20028;-86
2022/01/18 07:38:14;;;;;;;20.60;3.28;;;;;;;;;;5007843;28;20069;-86
2022/01/18 07:40:41;;;;;;;22.77;3.80;;;;;;;;;;5005407;28;20061;-85
2022/01/18 07:43:07;;;;;;;13.45;3.55;;;;;;;;;;5000046;28;20033;-85
2022/01/18 07:45:39;;;;;;;18.23;3.40;;;;;;;;;;5001186;28;20084;-86
2022/01/18 07:48:05;;;;;;;17.00;4.03;;;;;;;;;;5013682;28;20105;-85
2022/01/18 07:50:32;;;;;;;23.20;4.20;;;;;;;;;;5004927;28;20564;-85
2022/01/18 07:52:58;;;;;;;16.02;3.63;;;;;;;;;;5002813;28;20030;-86
2022/01/18 07:55:24;;;;;;;20.40;4.75;;;;;;;;;;5007924;28;20053;-85
2022/01/18 07:57:50;;;;;;;13.48;3.38;;;;;;;;;;5000965;28;20481;-85
2022/01/18 08:00:16;;;;;;;12.35;3.55;;;;;;;;;;5004994;28;20041;-86
2022/01/18 08:02:42;;;;;;;26.55;4.10;;;;;;;;;;5001837;28;20030;-85
2022/01/18 08:05:09;;;;;;;21.42;4.95;;;;;;;;;;5017448;28;20462;-86
2022/01/18 08:07:35;;;;;;;24.45;4.32;;;;;;;;;;5021278;28;20400;-86
2022/01/18 08:10:02;;;;;;;22.30;4.22;;;;;;;;;;5000389;28;20072;-86
2022/01/18 08:12:28;;;;;;;15.25;3.38;;;;;;;;;;5017924;28;20541;-88
2022/01/18 08:14:59;;;;;;;18.42;3.60;;;;;;;;;;5016671;28;20034;-88
2022/01/18 08:17:26;;;;;;;20.20;3.70;;;;;;;;;;5005058;28;20489;-89
2022/01/18 08:19:52;;;;;;;25.40;4.32;;;;;;;;;;4995945;28;20068;-89
2022/01/18 08:22:18;;;;;;;16.33;4.10;;;;;;;;;;5001912;28;20548;-88
2022/01/18 08:24:44;;;;;;;26.92;4.43;;;;;;;;;;5008317;28;20034;-84
2022/01/18 08:27:10;;;;;;;26.63;4.22;;;;;;;;;;4990681;28;21230;-86
2022/01/18 08:29:39;;;;;;;23.73;4.38;;;;;;;;;;5019882;28;20060;-86
2022/01/18 08:32:06;;;;;;;22.40;4.18;;;;;;;;;;5016867;28;20486;-86
2022/01/18 08:34:33;;;;;;;16.30;4.13;;;;;;;;;;5006344;28;20266;-86
2022/01/18 08:36:59;;;;;;;19.25;3.97;;;;;;;;;;5001371;28;20555;-86
2022/01/18 08:39:25;;;;;;;16.38;3.40;;;;;;;;;;5005507;28;20034;-86
2022/01/18 08:41:51;;;;;;;26.42;4.60;;;;;;;;;;5003341;28;20033;-88
2022/01/18 08:44:17;;;;;;;17.08;4.07;;;;;;;;;;5005473;28;20124;-85
2022/01/18 08:46:43;;;;;;;15.00;3.35;;;;;;;;;;5003729;28;20034;-86
2022/01/18 08:49:09;;;;;;;18.23;3.92;;;;;;;;;;5001286;28;20037;-86
2022/01/18 08:51:36;;;;;;;20.63;4.13;;;;;;;;;;5007020;28;20036;-86
2022/01/18 08:54:02;;;;;;;14.80;4.10;;;;;;;;;;4996697;28;20064;-86
2022/01/18 08:56:29;;;;;;;19.27;3.40;;;;;;;;;;5001250;28;20495;-86
2022/01/18 08:58:55;;;;;;;13.65;3.15;;;;;;;;;;5014406;28;20481;-85
2022/01/18 09:01:21;;;;;;;21.20;2.88;;;;;;;;;;5018644;28;20037;-86
2022/01/18 09:03:49;;;;;;;22.27;4.03;;;;;;;;;;5015699;28;20033;-85
2022/01/18 09:06:16;;;;;;;17.05;3.03;;;;;;;;;;5007843;28;20604;-85
2022/01/18 09:08:43;;;;;;;12.65;3.20;;;;;;;;;;5014083;28;20022;-85
2022/01/18 09:11:16;;;;;;;17.58;3.67;;;;;;;;;;5000301;28;20030;-86
2022/01/18 09:13:42;;;;;;;20.23;3.65;;;;;;;;;;5019875;28;20490;-85
2022/01/18 09:16:10;;;;;;;13.90;2.75;;;;;;;;;;4993382;28;20520;-86
2022/01/18 09:18:36;;;;;;;10.40;2.83;;;;;;;;;;5007606;28;20041;-86
2022/01/18 09:21:02;;;;;;;24.42;3.22;;;;;;;;;;4996100;28;20124;-85
2022/01/18 09:23:29;;;;;;;13.82;2.80;;;;;;;;;;5000861;28;20037;-86
2022/01/18 09:25:55;;;;;;;10.63;2.47;;;;;;;;;;5011247;28;20041;-85
2022/01/18 09:28:21;;;;;;;13.07;2.97;;;;;;;;;;5003401;28;20033;-85
2022/01/18 09:30:47;;;;;;;12.88;3.33;;;;;;;;;;5000211;28;20048;-85
2022/01/18 09:33:13;;;;;;;18.88;3.47;;;;;;;;;;5013909;28;20045;-85
2022/01/18 09:35:39;;;;;;;6.25;2.22;;;;;;;;;;5019218;28;20037;-86
2022/01/18 09:38:06;;;;;;;8.32;2.15;;;;;;;;;;5000505;28;20026;-86
2022/01/18 09:40:33;;;;;;;18.70;2.90;;;;;;;;;;5015203;28;20085;-88
2022/01/18 09:43:07;;;;;;;14.55;3.03;;;;;;;;;;5004988;28;20037;-86
2022/01/18 09:45:33;;;;;;;18.38;3.35;;;;;;;;;;5001073;28;20481;-86
2022/01/18 09:47:59;;;;;;;12.15;2.65;;;;;;;;;;5002484;28;20064;-86
2022/01/18 09:50:31;;;;;;;12.85;2.67;;;;;;;;;;5006837;28;20025;-86
2022/01/18 09:52:58;;;;;;;16.30;2.60;;;;;;;;;;5000063;28;20424;-86
2022/01/18 09:55:25;;;;;;;13.93;2.75;;;;;;;;;;4999882;28;20438;-86
2022/01/18 09:57:52;;;;;;;9.02;2.75;;;;;;;;;;5001521;28;20116;-86
2022/01/18 10:00:19;;;;;;;10.50;3.00;;;;;;;;;;5001018;28;20072;-86
2022/01/18 10:02:45;;;;;;;13.25;2.60;;;;;;;;;;4998867;28;20038;-86
2022/01/18 10:05:18;;;;;;;8.15;2.63;;;;;;;;;;5000688;28;20630;-86
2022/01/18 10:07:44;;;;;;;16.98;3.50;;;;;;;;;;5017224;28;20021;-86
2022/01/18 10:10:10;;;;;;;15.68;3.20;;;;;;;;;;5001081;28;20025;-86
2022/01/18 10:12:36;;;;;;;16.75;2.70;;;;;;;;;;5003024;28;20071;-86
2022/01/18 10:15:03;;;;;;;16.63;2.88;;;;;;;;;;4998771;28;20497;-86
2022/01/18 10:17:30;;;;;;;16.38;3.58;;;;;;;;;;5001689;28;20034;-86
2022/01/18 10:20:02;;;;;;;14.88;3.53;;;;;;;;;;5016368;28;20018;-86
2022/01/18 10:22:35;;;;;;;11.65;3.40;;;;;;;;;;4997714;28;20034;-86
2022/01/18 10:25:18;;;;;;;18.45;3.92;;;;;;;;;;5005186;28;20061;-86
2022/01/18 10:27:47;;;;;;;15.00;3.03;;;;;;;;;;4999234;28;20029;-86
2022/01/18 10:30:21;;;;;;;17.08;3.55;;;;;;;;;;5005815;28;20026;-86
2022/01/18 10:33:13;;;;;;;11.00;2.83;;;;;;;;;;4995197;28;20029;-86
2022/01/18 10:35:57;;;;;;;14.63;2.97;;;;;;;;;;5007615;28;20103;-85
2022/01/18 10:38:23;;;;;;;13.38;2.80;;;;;;;;;;5017747;28;20221;-87
2022/01/18 10:40:50;;;;;;;11.20;2.88;;;;;;;;;;5015345;28;20529;-93
2022/01/18 10:43:23;;;;;;;18.95;3.50;;;;;;;;;;4999634;28;20871;-88
2022/01/18 10:45:49;;;;;;;14.45;2.67;;;;;;;;;;5011158;28;20029;-86
2022/01/18 10:48:15;;;;;;;15.15;2.97;;;;;;;;;;4991467;28;20067;-86
2022/01/18 10:50:43;;;;;;;9.27;2.83;;;;;;;;;;5012128;28;20033;-86
2022/01/18 10:53:17;;;;;;;13.65;2.92;;;;;;;;;;5012839;28;20038;-86
2022/01/18 10:55:44;;;;;;;19.42;4.18;;;;;;;;;;5012805;28;20716;-86
2022/01/18 10:58:11;;;;;;;13.98;3.28;;;;;;;;;;4997209;28;20612;-86
2022/01/18 11:00:38;;;;;;;15.70;3.53;;;;;;;;;;5004236;28;20054;-86
2022/01/18 11:03:05;;;;;;;16.25;2.60;;;;;;;;;;4999055;28;20561;-86
2022/01/18 11:05:34;;;;;;;13.45;2.90;;;;;;;;;;5002155;28;20034;-86
2022/01/18 11:08:04;;;;;;;24.45;3.63;;;;;;;;;;4999176;28;20075;-87
2022/01/18 11:10:37;;;;;;;12.82;3.78;;;;;;;;;;5019480;28;20104;-86
2022/01/18 11:13:11;;;;;;;11.73;3.03;;;;;;;;;;5000565;28;20375;-86
2022/01/18 11:15:40;;;;;;;15.60;2.97;;;;;;;;;;4998563;28;20042;-86
2022/01/18 11:18:16;;;;;;;15.63;3.17;;;;;;;;;;5003657;28;20037;-86
2022/01/18 11:20:42;;;;;;;;;;;;;;;;;;5017559;28;20037;-87
2022/01/18 11:23:09;;;;;;;12.48;2.90;;;;;;;;;;5015971;28;19957;-86
2022/01/18 11:25:37;;;;;;;9.38;2.72;;;;;;;;;;5012564;28;20053;-86
2022/01/18 11:28:04;;;;;;;15.02;3.67;;;;;;;;;;5017424;28;20025;-87
2022/01/18 11:30:34;;;;;;;20.33;3.38;;;;;;;;;;4995297;28;20040;-86
2022/01/18 11:33:02;;;;;;;10.48;2.60;;;;;;;;;;5002633;28;20046;-86
2022/01/18 11:35:31;;;;;;;22.13;3.30;;;;;;;;;;5002492;28;20452;-86
2022/01/18 11:37:57;;;;;;;14.40;2.97;;;;;;;;;;4994305;28;20046;-86
2022/01/18 11:40:24;;;;;;;18.95;3.30;;;;;;;;;;5020740;28;20026;-86
2022/01/18 11:42:58;;;;;;;15.00;2.92;;;;;;;;;;5015562;28;20113;-86
2022/01/18 11:45:24;;;;;;;11.85;3.28;;;;;;;;;;5004725;28;20493;-86
2022/01/18 11:48:04;;;;;;;13.85;3.00;;;;;;;;;;5000475;28;20018;-86
2022/01/18 11:50:31;;;;;;;16.60;3.08;;;;;;;;;;5012511;28;20037;-86
2022/01/18 11:53:24;;;;;;;12.93;2.85;;;;;;;;;;5003365;28;20579;-86
2022/01/18 11:55:58;;;;;;;16.58;2.65;;;;;;;;;;5000548;28;20025;-86
2022/01/18 11:58:25;;;;;;;8.63;3.00;;;;;;;;;;5021824;28;20753;-86
2022/01/18 12:01:00;;;;;;;13.45;2.92;;;;;;;;;;5018545;28;20024;-86
2022/01/18 12:03:27;;;;;;;11.07;2.80;;;;;;;;;;5024433;28;20053;-86
2022/01/18 12:05:55;;;;;;;10.93;2.80;;;;;;;;;;5003892;28;20021;-86
2022/01/18 12:08:30;;;;;;;8.18;3.10;;;;;;;;;;5008452;28;20227;-85
2022/01/18 12:10:56;;;;;;;11.07;2.33;;;;;;;;;;5020686;28;20474;-86
2022/01/18 12:13:27;;;;;;;13.80;3.08;;;;;;;;;;4999357;28;20358;-86
2022/01/18 12:15:56;;;;;;;9.15;1.88;;;;;;;;;;5006857;28;20038;-86
2022/01/18 12:18:26;;;;;;;8.77;2.40;;;;;;;;;;5012516;28;20041;-86
2022/01/18 12:20:54;;;;;;;7.38;1.95;;;;;;;;;;5024577;28;20675;-86
2022/01/18 12:23:33;;;;;;;10.10;2.58;;;;;;;;;;4999145;28;20072;-86
2022/01/18 12:31:52;;;;;;;28.38;3.92;;;;;;;;;;5000861;28;20060;-86
2022/01/18 12:34:31;;;;;;;10.32;2.72;;;;;;;;;;4986765;28;20394;-86
2022/01/18 12:36:57;;;;;;;14.00;3.00;;;;;;;;;;4977603;28;20057;-86
2022/01/18 12:39:23;;;;;;;8.93;2.55;;;;;;;;;;4987444;28;20757;-86
2022/01/18 12:41:56;;;;;;;19.33;4.00;;;;;;;;;;4984366;28;20033;-86
2022/01/18 12:44:24;;;;;;;16.75;3.60;;;;;;;;;;4979994;28;20033;-86
2022/01/18 12:46:59;;;;;;;10.15;3.65;;;;;;;;;;4981994;28;20026;-85
2022/01/18 12:49:27;;;;;;;20.10;3.78;;;;;;;;;;4981913;28;20026;-86
2022/01/18 12:52:00;;;;;;;12.18;3.35;;;;;;;;;;5000150;28;20422;-86
2022/01/18 12:54:40;;;;;;;17.80;3.33;;;;;;;;;;4982127;28;20034;-86
2022/01/18 12:57:16;;;;;;;11.77;3.95;;;;;;;;;;4983011;28;20053;-86
2022/01/18 13:00:01;;;;;;;10.20;3.60;;;;;;;;;;4985078;28;20053;-87
2022/01/18 13:02:27;;;;;;;13.43;4.18;;;;;;;;;;4984075;28;20038;-86
2022/01/18 13:05:00;;;;;;;10.27;3.83;;;;;;;;;;4980157;28;20032;-86
2022/01/18 13:07:29;;;;;;;20.40;5.38;;;;;;;;;;4979160;28;20030;-86
2022/01/18 13:10:07;;;;;;;12.52;3.40;;;;;;;;;;4986604;28;20033;-86
2022/01/18 13:12:34;;;;;;;8.40;3.38;;;;;;;;;;4989058;28;20478;-86
2022/01/18 13:15:07;;;;;;;15.93;3.95;;;;;;;;;;4980060;28;20176;-85
2022/01/18 13:23:15;;;;;;;21.95;4.78;;;;;;;;;;4998734;28;20129;-86
2022/01/18 13:25:54;;;;;;;20.70;4.63;;;;;;;;;;4985988;28;20041;-86
2022/01/18 13:28:20;;;;;;;24.25;4.38;;;;;;;;;;5002511;28;20128;-88
2022/01/18 13:30:49;;;;;;;17.45;5.25;;;;;;;;;;5000142;28;20076;-86
2022/01/18 13:33:22;;;;;;;13.02;5.10;;;;;;;;;;5002646;28;20165;-86
2022/01/18 13:35:48;;;;;;;20.13;4.93;;;;;;;;;;5015206;28;20029;-86
2022/01/18 13:38:14;;;;;;;15.40;5.82;;;;;;;;;;5002432;28;20527;-86
2022/01/18 13:40:41;;;;;;;12.35;3.17;;;;;;;;;;5018099;28;20037;-86
2022/01/18 13:43:12;;;;;;;20.05;3.78;;;;;;;;;;5015320;28;20478;-86
2022/01/18 13:45:44;;;;;;;21.70;5.93;;;;;;;;;;4997678;28;20037;-86
2022/01/18 13:48:12;;;;;;;21.70;4.63;;;;;;;;;;5019418;28;20470;-86
2022/01/18 13:50:38;;;;;;;33.33;6.72;;;;;;;;;;5015830;28;20485;-86
2022/01/18 13:53:19;;;;;;;20.15;5.22;;;;;;;;;;5003054;28;20385;-87
2022/01/18 13:55:48;;;;;;;19.27;4.90;;;;;;;;;;5000571;28;20052;-86
2022/01/18 13:58:19;;;;;;;16.67;5.10;;;;;;;;;;5003436;28;20034;-86
2022/01/18 14:00:45;;;;;;;22.17;5.20;;;;;;;;;;5004481;28;20045;-87
2022/01/18 14:03:11;;;;;;;15.55;3.83;;;;;;;;;;4997717;28;20038;-86
2022/01/18 14:05:47;;;;;;;16.10;5.45;;;;;;;;;;5004413;28;20289;-85
2022/01/18 14:08:13;;;;;;;14.45;4.72;;;;;;;;;;4996458;28;20077;-85
2022/01/18 14:10:39;;;;;;;27.70;4.90;;;;;;;;;;5000165;28;20147;-86
2022/01/18 14:13:05;;;;;;;17.42;4.85;;;;;;;;;;5008431;28;20065;-86
2022/01/18 14:15:37;;;;;;;15.73;4.97;;;;;;;;;;4998700;28;20505;-86
2022/01/18 14:18:04;;;;;;;16.48;4.90;;;;;;;;;;5012564;28;20093;-87
2022/01/18 14:20:31;;;;;;;10.68;3.67;;;;;;;;;;5005864;28;20033;-91
2022/01/18 14:22:57;;;;;;;16.02;4.47;;;;;;;;;;4997517;28;20034;-86
2022/01/18 14:25:29;;;;;;;18.80;5.18;;;;;;;;;;5014834;28;20025;-86
2022/01/18 14:28:02;;;;;;;26.13;6.05;;;;;;;;;;5015322;28;20635;-87
2022/01/18 14:30:29;;;;;;;13.13;4.75;;;;;;;;;;4998886;28;20032;-86
2022/01/18 14:32:56;;;;;;;23.42;5.38;;;;;;;;;;4997399;28;20034;-86
2022/01/18 14:35:23;;;;;;;16.65;5.05;;;;;;;;;;5011202;28;20298;-86
2022/01/18 14:37:54;;;;;;;30.70;7.45;;;;;;;;;;5002627;28;20032;-86
2022/01/18 14:40:27;;;;;;;32.05;6.13;;;;;;;;;;5001915;28;20041;-86
2022/01/18 14:43:04;;;;;;;15.05;4.50;;;;;;;;;;5008013;28;20030;-86
2022/01/18 14:45:41;;;;;;;21.83;5.05;;;;;;;;;;5016869;28;20021;-85
2022/01/18 14:48:14;;;;;;;16.25;3.75;;;;;;;;;;5013873;28;20112;-88
2022/01/18 14:50:42;;;;;;;29.58;4.70;;;;;;;;;;4999412;28;20021;-86
2022/01/18 14:53:11;;;;;;;18.38;5.43;;;;;;;;;;5007231;28;20041;-86
2022/01/18 14:55:38;;;;;;;27.17;5.60;;;;;;;;;;5002750;28;20429;-86
2022/01/18 14:58:04;;;;;;;22.15;5.07;;;;;;;;;;4995297;28;20053;-86
2022/01/18 15:00:35;;;;;;;24.02;4.20;;;;;;;;;;5021682;28;20079;-86
2022/01/18 15:03:01;;;;;;;21.02;5.22;;;;;;;;;;5013317;28;20029;-85
2022/01/18 15:05:28;;;;;;;18.48;4.07;;;;;;;;;;5004319;28;20125;-85
2022/01/18 15:07:54;;;;;;;9.27;3.00;;;;;;;;;;5001353;28;20489;-85
2022/01/18 15:10:22;;;;;;;31.45;5.97;;;;;;;;;;4996818;28;20068;-86
2022/01/18 15:12:48;;;;;;;16.33;5.03;;;;;;;;;;5018356;28;20041;-85
2022/01/18 15:15:16;;;;;;;16.25;4.22;;;;;;;;;;5000415;28;20588;-86
2022/01/18 15:17:42;;;;;;;9.85;3.50;;;;;;;;;;4998457;28;20044;-85
2022/01/18 15:20:09;;;;;;;26.88;5.60;;;;;;;;;;5000234;28;20472;-86
2022/01/18 15:22:35;;;;;;;25.95;5.20;;;;;;;;;;5000667;28;20091;-85
2022/01/18 15:25:10;;;;;;;27.63;5.60;;;;;;;;;;4995082;28;20556;-84
2022/01/18 15:27:42;;;;;;;14.95;3.67;;;;;;;;;;5001575;28;20400;-86
2022/01/18 15:30:11;;;;;;;14.73;5.38;;;;;;;;;;5014353;28;20030;-85
2022/01/18 15:32:37;;;;;;;18.95;5.32;;;;;;;;;;5010925;28;20512;-86
2022/01/18 15:35:03;;;;;;;16.42;6.20;;;;;;;;;;4997884;28;20069;-85
2022/01/18 15:37:29;;;;;;;23.98;6.03;;;;;;;;;;5002476;28;20588;-85
2022/01/18 15:39:59;;;;;;;19.77;5.35;;;;;;;;;;5015220;28;20481;-85
2022/01/18 15:42:25;;;;;;;21.88;6.00;;;;;;;;;;5012617;28;20026;-86
2022/01/18 15:44:51;;;;;;;23.05;6.18;;;;;;;;;;5019952;28;20476;-85
2022/01/18 15:47:17;;;;;;;28.15;6.35;;;;;;;;;;4996527;28;20025;-85
2022/01/18 15:49:44;;;;;;;20.95;6.32;;;;;;;;;;5012629;28;20041;-85
2022/01/18 15:52:10;;;;;;;16.77;6.88;;;;;;;;;;5001272;28;20030;-85
2022/01/18 15:54:37;;;;;;;28.50;6.38;;;;;;;;;;4998211;28;20029;-85
2022/01/18 15:57:07;;;;;;;30.92;8.85;;;;;;;;;;5000088;28;20164;-85